sensor_id;sensor_type;location;lat;lon;timestamp;P1;durP1;ratioP1;P2;durP2;ratioP2
58685;SDS011;44465;53.206;-6.106;2023-05-07T00:00:59;2.97;;;1.65;;
58685;SDS011;44465;53.206;-6.106;2023-05-07T00:03:25;4.78;;;1.88;;
58685;SDS011;44465;53.206;-6.106;2023-05-07T00:05:51;2.85;;;1.40;;
58685;SDS011;44465;53.206;-6.106;2023-05-07T00:08:18;1.73;;;1.60;;
58685;SDS011;44465;53.206;-6.106;2023-05-07T00:10:44;5.50;;;1.83;;
58685;SDS011;44465;53.206;-6.106;2023-05-07T00:13:09;2.90;;;1.92;;
58685;SDS011;44465;53.206;-6.106;2023-05-07T00:15:35;2.10;;;1.88;;
58685;SDS011;44465;53.206;-6.106;2023-05-07T00:18:01;2.20;;;1.63;;
58685;SDS011;44465;53.206;-6.106;2023-05-07T00:20:26;1.60;;;1.50;;
58685;SDS011;44465;53.206;-6.106;2023-05-07T00:22:52;1.88;;;1.27;;
58685;SDS011;44465;53.206;-6.106;2023-05-07T00:25:18;1.98;;;1.60;;
58685;SDS011;44465;53.206;-6.106;2023-05-07T00:27:44;1.65;;;1.27;;
58685;SDS011;44465;53.206;-6.106;2023-05-07T00:30:10;2.50;;;1.50;;
58685;SDS011;44465;53.206;-6.106;2023-05-07T00:32:36;2.65;;;1.88;;
58685;SDS011;44465;53.206;-6.106;2023-05-07T00:35:03;1.45;;;1.35;;
58685;SDS011;44465;53.206;-6.106;2023-05-07T00:37:29;2.17;;;1.30;;
58685;SDS011;44465;53.206;-6.106;2023-05-07T00:39:55;3.85;;;1.60;;
58685;SDS011;44465;53.206;-6.106;2023-05-07T00:42:20;2.28;;;1.52;;
58685;SDS011;44465;53.206;-6.106;2023-05-07T00:44:46;2.08;;;1.77;;
58685;SDS011;44465;53.206;-6.106;2023-05-07T00:47:12;3.45;;;1.80;;
58685;SDS011;44465;53.206;-6.106;2023-05-07T00:49:39;3.67;;;1.85;;
58685;SDS011;44465;53.206;-6.106;2023-05-07T00:52:10;2.47;;;1.83;;
58685;SDS011;44465;53.206;-6.106;2023-05-07T00:54:38;2.58;;;1.33;;
58685;SDS011;44465;53.206;-6.106;2023-05-07T00:57:05;2.15;;;1.50;;
58685;SDS011;44465;53.206;-6.106;2023-05-07T00:59:31;1.83;;;1.30;;
58685;SDS011;44465;53.206;-6.106;2023-05-07T01:01:58;2.72;;;1.67;;
58685;SDS011;44465;53.206;-6.106;2023-05-07T01:04:24;2.03;;;1.50;;
58685;SDS011;44465;53.206;-6.106;2023-05-07T01:06:50;2.65;;;1.45;;
58685;SDS011;44465;53.206;-6.106;2023-05-07T01:11:45;2.53;;;1.60;;
58685;SDS011;44465;53.206;-6.106;2023-05-07T01:14:12;3.03;;;1.60;;
58685;SDS011;44465;53.206;-6.106;2023-05-07T01:16:37;3.30;;;1.60;;
58685;SDS011;44465;53.206;-6.106;2023-05-07T01:19:03;3.58;;;1.75;;
58685;SDS011;44465;53.206;-6.106;2023-05-07T01:21:29;3.75;;;1.65;;
58685;SDS011;44465;53.206;-6.106;2023-05-07T01:23:58;2.45;;;1.20;;
58685;SDS011;44465;53.206;-6.106;2023-05-07T01:26:24;2.35;;;1.63;;
58685;SDS011;44465;53.206;-6.106;2023-05-07T01:28:50;2.03;;;1.83;;
58685;SDS011;44465;53.206;-6.106;2023-05-07T01:31:16;1.55;;;1.20;;
58685;SDS011;44465;53.206;-6.106;2023-05-07T01:33:42;2.65;;;1.40;;
58685;SDS011;44465;53.206;-6.106;2023-05-07T01:36:11;1.33;;;1.23;;
58685;SDS011;44465;53.206;-6.106;2023-05-07T01:38:38;1.52;;;1.30;;
58685;SDS011;44465;53.206;-6.106;2023-05-07T01:43:32;3.85;;;1.45;;
58685;SDS011;44465;53.206;-6.106;2023-05-07T01:45:58;3.95;;;1.70;;
58685;SDS011;44465;53.206;-6.106;2023-05-07T01:48:26;2.97;;;1.55;;
58685;SDS011;44465;53.206;-6.106;2023-05-07T01:50:52;1.65;;;1.13;;
58685;SDS011;44465;53.206;-6.106;2023-05-07T01:53:18;2.72;;;1.48;;
58685;SDS011;44465;53.206;-6.106;2023-05-07T01:55:44;2.20;;;1.60;;
58685;SDS011;44465;53.206;-6.106;2023-05-07T01:58:10;2.40;;;1.35;;
58685;SDS011;44465;53.206;-6.106;2023-05-07T02:00:36;2.63;;;1.63;;
58685;SDS011;44465;53.206;-6.106;2023-05-07T02:03:01;1.83;;;1.33;;
58685;SDS011;44465;53.206;-6.106;2023-05-07T02:05:38;1.33;;;1.20;;
58685;SDS011;44465;53.206;-6.106;2023-05-07T02:08:10;1.85;;;1.50;;
58685;SDS011;44465;53.206;-6.106;2023-05-07T02:10:36;2.28;;;1.33;;
58685;SDS011;44465;53.206;-6.106;2023-05-07T02:13:04;1.92;;;1.40;;
58685;SDS011;44465;53.206;-6.106;2023-05-07T02:15:30;3.28;;;1.70;;
58685;SDS011;44465;53.206;-6.106;2023-05-07T02:18:05;3.50;;;1.70;;
58685;SDS011;44465;53.206;-6.106;2023-05-07T02:20:33;1.95;;;1.40;;
58685;SDS011;44465;53.206;-6.106;2023-05-07T02:22:58;2.65;;;1.50;;
58685;SDS011;44465;53.206;-6.106;2023-05-07T02:25:26;2.33;;;1.30;;
58685;SDS011;44465;53.206;-6.106;2023-05-07T02:27:52;2.13;;;1.42;;
58685;SDS011;44465;53.206;-6.106;2023-05-07T02:30:20;2.50;;;1.50;;
58685;SDS011;44465;53.206;-6.106;2023-05-07T02:32:49;1.92;;;1.52;;
58685;SDS011;44465;53.206;-6.106;2023-05-07T02:35:15;1.50;;;1.40;;
58685;SDS011;44465;53.206;-6.106;2023-05-07T02:37:40;2.35;;;1.73;;
58685;SDS011;44465;53.206;-6.106;2023-05-07T02:40:06;2.42;;;1.70;;
58685;SDS011;44465;53.206;-6.106;2023-05-07T02:42:32;1.80;;;1.55;;
58685;SDS011;44465;53.206;-6.106;2023-05-07T02:44:57;1.20;;;1.10;;
58685;SDS011;44465;53.206;-6.106;2023-05-07T02:47:23;1.73;;;1.63;;
58685;SDS011;44465;53.206;-6.106;2023-05-07T02:49:52;1.40;;;1.30;;
58685;SDS011;44465;53.206;-6.106;2023-05-07T02:52:18;1.20;;;1.10;;
58685;SDS011;44465;53.206;-6.106;2023-05-07T02:54:44;2.25;;;1.20;;
58685;SDS011;44465;53.206;-6.106;2023-05-07T02:57:10;1.73;;;1.52;;
58685;SDS011;44465;53.206;-6.106;2023-05-07T02:59:35;1.42;;;1.13;;
58685;SDS011;44465;53.206;-6.106;2023-05-07T03:02:01;1.20;;;1.10;;
58685;SDS011;44465;53.206;-6.106;2023-05-07T03:04:26;2.10;;;1.63;;
58685;SDS011;44465;53.206;-6.106;2023-05-07T03:06:52;2.88;;;1.45;;
58685;SDS011;44465;53.206;-6.106;2023-05-07T03:09:17;1.45;;;1.30;;
58685;SDS011;44465;53.206;-6.106;2023-05-07T03:11:43;1.52;;;1.40;;
58685;SDS011;44465;53.206;-6.106;2023-05-07T03:14:08;1.55;;;1.27;;
58685;SDS011;44465;53.206;-6.106;2023-05-07T03:16:34;1.63;;;1.52;;
58685;SDS011;44465;53.206;-6.106;2023-05-07T03:18:59;2.55;;;1.70;;
58685;SDS011;44465;53.206;-6.106;2023-05-07T03:21:25;2.40;;;1.42;;
58685;SDS011;44465;53.206;-6.106;2023-05-07T03:23:51;1.38;;;1.27;;
58685;SDS011;44465;53.206;-6.106;2023-05-07T03:26:17;2.25;;;1.20;;
58685;SDS011;44465;53.206;-6.106;2023-05-07T03:28:43;2.42;;;1.40;;
58685;SDS011;44465;53.206;-6.106;2023-05-07T03:31:11;1.40;;;1.20;;
58685;SDS011;44465;53.206;-6.106;2023-05-07T03:33:42;1.52;;;1.40;;
58685;SDS011;44465;53.206;-6.106;2023-05-07T03:36:16;1.92;;;1.33;;
58685;SDS011;44465;53.206;-6.106;2023-05-07T03:38:41;1.20;;;1.10;;
58685;SDS011;44465;53.206;-6.106;2023-05-07T03:41:07;2.55;;;1.30;;
58685;SDS011;44465;53.206;-6.106;2023-05-07T03:43:33;1.90;;;1.35;;
58685;SDS011;44465;53.206;-6.106;2023-05-07T03:46:04;1.25;;;1.10;;
58685;SDS011;44465;53.206;-6.106;2023-05-07T03:48:30;1.35;;;1.20;;
58685;SDS011;44465;53.206;-6.106;2023-05-07T03:50:57;1.60;;;1.33;;
58685;SDS011;44465;53.206;-6.106;2023-05-07T03:53:25;1.42;;;1.30;;
58685;SDS011;44465;53.206;-6.106;2023-05-07T03:55:51;2.38;;;1.30;;
58685;SDS011;44465;53.206;-6.106;2023-05-07T03:58:16;1.67;;;1.23;;
58685;SDS011;44465;53.206;-6.106;2023-05-07T04:00:42;1.42;;;1.23;;
58685;SDS011;44465;53.206;-6.106;2023-05-07T04:03:17;1.27;;;1.17;;
58685;SDS011;44465;53.206;-6.106;2023-05-07T04:05:43;1.00;;;1.00;;
58685;SDS011;44465;53.206;-6.106;2023-05-07T04:08:08;1.33;;;1.23;;
58685;SDS011;44465;53.206;-6.106;2023-05-07T04:10:38;1.63;;;1.52;;
58685;SDS011;44465;53.206;-6.106;2023-05-07T04:13:07;1.88;;;1.40;;
58685;SDS011;44465;53.206;-6.106;2023-05-07T04:15:34;1.65;;;1.30;;
58685;SDS011;44465;53.206;-6.106;2023-05-07T04:18:01;1.75;;;1.00;;
58685;SDS011;44465;53.206;-6.106;2023-05-07T04:20:26;1.15;;;1.05;;
58685;SDS011;44465;53.206;-6.106;2023-05-07T04:23:00;1.73;;;1.20;;
58685;SDS011;44465;53.206;-6.106;2023-05-07T04:25:25;1.25;;;1.20;;
58685;SDS011;44465;53.206;-6.106;2023-05-07T04:27:54;1.60;;;1.20;;
58685;SDS011;44465;53.206;-6.106;2023-05-07T04:30:21;3.17;;;1.48;;
58685;SDS011;44465;53.206;-6.106;2023-05-07T04:32:46;2.40;;;1.30;;
58685;SDS011;44465;53.206;-6.106;2023-05-07T04:35:13;1.67;;;1.23;;
58685;SDS011;44465;53.206;-6.106;2023-05-07T04:37:40;2.10;;;1.27;;
58685;SDS011;44465;53.206;-6.106;2023-05-07T04:40:05;2.45;;;1.60;;
58685;SDS011;44465;53.206;-6.106;2023-05-07T04:42:32;1.58;;;1.40;;
58685;SDS011;44465;53.206;-6.106;2023-05-07T04:45:01;0.90;;;0.90;;
58685;SDS011;44465;53.206;-6.106;2023-05-07T04:47:29;1.67;;;1.20;;
58685;SDS011;44465;53.206;-6.106;2023-05-07T04:49:55;1.10;;;1.00;;
58685;SDS011;44465;53.206;-6.106;2023-05-07T04:52:20;1.77;;;1.30;;
58685;SDS011;44465;53.206;-6.106;2023-05-07T04:54:47;1.40;;;1.30;;
58685;SDS011;44465;53.206;-6.106;2023-05-07T04:57:13;1.75;;;1.30;;
58685;SDS011;44465;53.206;-6.106;2023-05-07T04:59:41;1.50;;;1.38;;
58685;SDS011;44465;53.206;-6.106;2023-05-07T05:02:07;1.83;;;1.23;;
58685;SDS011;44465;53.206;-6.106;2023-05-07T05:04:33;1.55;;;1.45;;
58685;SDS011;44465;53.206;-6.106;2023-05-07T05:06:58;1.25;;;1.08;;
58685;SDS011;44465;53.206;-6.106;2023-05-07T05:09:24;1.98;;;1.20;;
58685;SDS011;44465;53.206;-6.106;2023-05-07T05:11:50;1.63;;;1.10;;
58685;SDS011;44465;53.206;-6.106;2023-05-07T05:14:15;1.70;;;1.05;;
58685;SDS011;44465;53.206;-6.106;2023-05-07T05:16:41;1.45;;;1.13;;
58685;SDS011;44465;53.206;-6.106;2023-05-07T05:19:06;1.38;;;1.20;;
58685;SDS011;44465;53.206;-6.106;2023-05-07T05:21:35;1.17;;;1.08;;
58685;SDS011;44465;53.206;-6.106;2023-05-07T05:24:06;1.23;;;1.13;;
58685;SDS011;44465;53.206;-6.106;2023-05-07T05:26:31;1.23;;;0.95;;
58685;SDS011;44465;53.206;-6.106;2023-05-07T05:28:57;1.92;;;1.20;;
58685;SDS011;44465;53.206;-6.106;2023-05-07T05:31:24;1.95;;;1.10;;
58685;SDS011;44465;53.206;-6.106;2023-05-07T05:33:50;1.00;;;1.00;;
58685;SDS011;44465;53.206;-6.106;2023-05-07T05:36:16;1.67;;;0.80;;
58685;SDS011;44465;53.206;-6.106;2023-05-07T05:38:43;1.67;;;0.98;;
58685;SDS011;44465;53.206;-6.106;2023-05-07T05:41:10;1.38;;;1.17;;
58685;SDS011;44465;53.206;-6.106;2023-05-07T05:43:36;1.20;;;1.00;;
58685;SDS011;44465;53.206;-6.106;2023-05-07T05:46:01;2.05;;;1.20;;
58685;SDS011;44465;53.206;-6.106;2023-05-07T05:48:31;2.50;;;1.40;;
58685;SDS011;44465;53.206;-6.106;2023-05-07T05:50:58;2.00;;;1.30;;
58685;SDS011;44465;53.206;-6.106;2023-05-07T05:53:24;0.90;;;0.90;;
58685;SDS011;44465;53.206;-6.106;2023-05-07T05:55:49;0.90;;;0.90;;
58685;SDS011;44465;53.206;-6.106;2023-05-07T05:58:16;1.33;;;1.20;;
58685;SDS011;44465;53.206;-6.106;2023-05-07T06:00:48;0.70;;;0.70;;
58685;SDS011;44465;53.206;-6.106;2023-05-07T06:03:17;2.72;;;1.10;;
58685;SDS011;44465;53.206;-6.106;2023-05-07T06:05:44;1.10;;;0.90;;
58685;SDS011;44465;53.206;-6.106;2023-05-07T06:08:10;0.90;;;0.90;;
58685;SDS011;44465;53.206;-6.106;2023-05-07T06:10:36;2.35;;;1.10;;
58685;SDS011;44465;53.206;-6.106;2023-05-07T06:13:03;0.85;;;0.85;;
58685;SDS011;44465;53.206;-6.106;2023-05-07T06:15:30;0.98;;;0.98;;
58685;SDS011;44465;53.206;-6.106;2023-05-07T06:18:00;1.38;;;1.27;;
58685;SDS011;44465;53.206;-6.106;2023-05-07T06:20:25;1.30;;;0.85;;
58685;SDS011;44465;53.206;-6.106;2023-05-07T06:22:51;0.93;;;0.90;;
58685;SDS011;44465;53.206;-6.106;2023-05-07T06:25:16;1.00;;;0.82;;
58685;SDS011;44465;53.206;-6.106;2023-05-07T06:27:42;2.20;;;1.00;;
58685;SDS011;44465;53.206;-6.106;2023-05-07T06:30:08;1.20;;;0.80;;
58685;SDS011;44465;53.206;-6.106;2023-05-07T06:32:34;1.83;;;1.00;;
58685;SDS011;44465;53.206;-6.106;2023-05-07T06:34:59;1.10;;;0.90;;
58685;SDS011;44465;53.206;-6.106;2023-05-07T06:37:25;1.10;;;1.00;;
58685;SDS011;44465;53.206;-6.106;2023-05-07T06:39:57;1.25;;;1.08;;
58685;SDS011;44465;53.206;-6.106;2023-05-07T06:42:23;1.95;;;1.17;;
58685;SDS011;44465;53.206;-6.106;2023-05-07T06:44:49;1.05;;;1.02;;
58685;SDS011;44465;53.206;-6.106;2023-05-07T06:47:16;0.90;;;0.90;;
58685;SDS011;44465;53.206;-6.106;2023-05-07T06:49:44;0.90;;;0.82;;
58685;SDS011;44465;53.206;-6.106;2023-05-07T06:52:13;0.80;;;0.80;;
58685;SDS011;44465;53.206;-6.106;2023-05-07T06:54:39;1.00;;;1.00;;
58685;SDS011;44465;53.206;-6.106;2023-05-07T06:57:05;1.10;;;0.70;;
58685;SDS011;44465;53.206;-6.106;2023-05-07T06:59:31;1.27;;;1.13;;
58685;SDS011;44465;53.206;-6.106;2023-05-07T07:01:58;2.37;;;1.10;;
58685;SDS011;44465;53.206;-6.106;2023-05-07T07:04:23;0.60;;;0.60;;
58685;SDS011;44465;53.206;-6.106;2023-05-07T07:06:57;0.98;;;0.90;;
58685;SDS011;44465;53.206;-6.106;2023-05-07T07:09:23;1.13;;;0.82;;
58685;SDS011;44465;53.206;-6.106;2023-05-07T07:11:48;1.13;;;1.02;;
58685;SDS011;44465;53.206;-6.106;2023-05-07T07:14:14;1.33;;;0.77;;
58685;SDS011;44465;53.206;-6.106;2023-05-07T07:16:45;1.10;;;0.85;;
58685;SDS011;44465;53.206;-6.106;2023-05-07T07:19:13;0.70;;;0.70;;
58685;SDS011;44465;53.206;-6.106;2023-05-07T07:21:41;1.73;;;0.95;;
58685;SDS011;44465;53.206;-6.106;2023-05-07T07:24:07;2.17;;;1.00;;
58685;SDS011;44465;53.206;-6.106;2023-05-07T07:26:33;1.08;;;0.98;;
58685;SDS011;44465;53.206;-6.106;2023-05-07T07:28:58;0.90;;;0.90;;
58685;SDS011;44465;53.206;-6.106;2023-05-07T07:31:24;0.80;;;0.80;;
58685;SDS011;44465;53.206;-6.106;2023-05-07T07:33:50;1.52;;;0.90;;
58685;SDS011;44465;53.206;-6.106;2023-05-07T07:36:16;0.90;;;0.90;;
58685;SDS011;44465;53.206;-6.106;2023-05-07T07:38:41;1.20;;;1.10;;
58685;SDS011;44465;53.206;-6.106;2023-05-07T07:41:07;1.95;;;0.93;;
58685;SDS011;44465;53.206;-6.106;2023-05-07T07:43:34;0.85;;;0.85;;
58685;SDS011;44465;53.206;-6.106;2023-05-07T07:46:01;1.05;;;1.00;;
58685;SDS011;44465;53.206;-6.106;2023-05-07T07:48:27;1.10;;;0.85;;
58685;SDS011;44465;53.206;-6.106;2023-05-07T07:50:52;0.98;;;0.98;;
58685;SDS011;44465;53.206;-6.106;2023-05-07T07:53:18;2.13;;;1.25;;
58685;SDS011;44465;53.206;-6.106;2023-05-07T07:55:44;1.30;;;1.10;;
58685;SDS011;44465;53.206;-6.106;2023-05-07T07:58:13;1.30;;;1.20;;
58685;SDS011;44465;53.206;-6.106;2023-05-07T08:00:39;1.10;;;1.00;;
58685;SDS011;44465;53.206;-6.106;2023-05-07T08:03:04;1.05;;;0.90;;
58685;SDS011;44465;53.206;-6.106;2023-05-07T08:05:35;1.08;;;0.98;;
58685;SDS011;44465;53.206;-6.106;2023-05-07T08:08:04;1.15;;;1.02;;
58685;SDS011;44465;53.206;-6.106;2023-05-07T08:10:32;1.17;;;1.08;;
58685;SDS011;44465;53.206;-6.106;2023-05-07T08:13:04;0.85;;;0.85;;
58685;SDS011;44465;53.206;-6.106;2023-05-07T08:15:30;0.90;;;0.90;;
58685;SDS011;44465;53.206;-6.106;2023-05-07T08:17:56;1.17;;;1.08;;
58685;SDS011;44465;53.206;-6.106;2023-05-07T08:20:26;2.40;;;1.38;;
58685;SDS011;44465;53.206;-6.106;2023-05-07T08:22:52;1.50;;;1.23;;
58685;SDS011;44465;53.206;-6.106;2023-05-07T08:25:18;0.98;;;0.90;;
58685;SDS011;44465;53.206;-6.106;2023-05-07T08:27:43;1.58;;;1.40;;
58685;SDS011;44465;53.206;-6.106;2023-05-07T08:30:10;1.92;;;1.35;;
58685;SDS011;44465;53.206;-6.106;2023-05-07T08:32:36;1.08;;;1.08;;
58685;SDS011;44465;53.206;-6.106;2023-05-07T08:35:02;1.38;;;1.25;;
58685;SDS011;44465;53.206;-6.106;2023-05-07T08:37:27;1.40;;;1.30;;
58685;SDS011;44465;53.206;-6.106;2023-05-07T08:39:53;1.02;;;0.93;;
58685;SDS011;44465;53.206;-6.106;2023-05-07T08:42:22;2.92;;;1.48;;
58685;SDS011;44465;53.206;-6.106;2023-05-07T08:44:49;1.60;;;1.02;;
58685;SDS011;44465;53.206;-6.106;2023-05-07T08:47:18;1.20;;;1.10;;
58685;SDS011;44465;53.206;-6.106;2023-05-07T08:49:45;1.08;;;0.88;;
58685;SDS011;44465;53.206;-6.106;2023-05-07T08:52:12;1.15;;;1.00;;
58685;SDS011;44465;53.206;-6.106;2023-05-07T08:54:38;1.63;;;1.17;;
58685;SDS011;44465;53.206;-6.106;2023-05-07T08:57:06;0.88;;;0.82;;
58685;SDS011;44465;53.206;-6.106;2023-05-07T08:59:34;1.20;;;1.10;;
58685;SDS011;44465;53.206;-6.106;2023-05-07T09:02:00;1.65;;;1.15;;
58685;SDS011;44465;53.206;-6.106;2023-05-07T09:04:27;2.30;;;1.15;;
58685;SDS011;44465;53.206;-6.106;2023-05-07T09:06:54;2.13;;;1.00;;
58685;SDS011;44465;53.206;-6.106;2023-05-07T09:09:22;1.05;;;1.05;;
58685;SDS011;44465;53.206;-6.106;2023-05-07T09:11:56;1.80;;;1.50;;
58685;SDS011;44465;53.206;-6.106;2023-05-07T09:14:25;1.67;;;0.98;;
58685;SDS011;44465;53.206;-6.106;2023-05-07T09:16:53;2.17;;;1.20;;
58685;SDS011;44465;53.206;-6.106;2023-05-07T09:19:23;2.03;;;1.20;;
58685;SDS011;44465;53.206;-6.106;2023-05-07T09:21:50;1.65;;;1.10;;
58685;SDS011;44465;53.206;-6.106;2023-05-07T09:24:23;1.95;;;1.20;;
58685;SDS011;44465;53.206;-6.106;2023-05-07T09:26:48;1.38;;;1.27;;
58685;SDS011;44465;53.206;-6.106;2023-05-07T09:29:15;1.30;;;1.20;;
58685;SDS011;44465;53.206;-6.106;2023-05-07T09:31:40;2.55;;;1.30;;
58685;SDS011;44465;53.206;-6.106;2023-05-07T09:34:08;1.83;;;1.10;;
58685;SDS011;44465;53.206;-6.106;2023-05-07T09:36:36;3.50;;;1.30;;
58685;SDS011;44465;53.206;-6.106;2023-05-07T09:39:02;2.10;;;1.15;;
58685;SDS011;44465;53.206;-6.106;2023-05-07T09:41:30;1.33;;;1.17;;
58685;SDS011;44465;53.206;-6.106;2023-05-07T09:44:05;7.05;;;2.70;;
58685;SDS011;44465;53.206;-6.106;2023-05-07T09:46:36;13.85;;;3.38;;
58685;SDS011;44465;53.206;-6.106;2023-05-07T09:49:16;6.55;;;3.38;;
58685;SDS011;44465;53.206;-6.106;2023-05-07T09:51:50;8.30;;;2.85;;
58685;SDS011;44465;53.206;-6.106;2023-05-07T09:54:18;5.45;;;2.28;;
58685;SDS011;44465;53.206;-6.106;2023-05-07T09:56:51;9.88;;;3.25;;
58685;SDS011;44465;53.206;-6.106;2023-05-07T09:59:19;4.68;;;2.72;;
58685;SDS011;44465;53.206;-6.106;2023-05-07T10:01:46;9.43;;;2.38;;
58685;SDS011;44465;53.206;-6.106;2023-05-07T10:06:41;8.13;;;3.28;;
58685;SDS011;44465;53.206;-6.106;2023-05-07T10:09:08;52.15;;;6.40;;
58685;SDS011;44465;53.206;-6.106;2023-05-07T10:11:35;8.10;;;3.30;;
58685;SDS011;44465;53.206;-6.106;2023-05-07T10:14:02;10.00;;;2.83;;
58685;SDS011;44465;53.206;-6.106;2023-05-07T10:16:30;6.32;;;2.45;;
58685;SDS011;44465;53.206;-6.106;2023-05-07T10:18:58;7.30;;;3.00;;
58685;SDS011;44465;53.206;-6.106;2023-05-07T10:21:25;5.55;;;2.88;;
58685;SDS011;44465;53.206;-6.106;2023-05-07T10:26:27;14.27;;;6.45;;
58685;SDS011;44465;53.206;-6.106;2023-05-07T10:29:03;10.52;;;4.10;;
58685;SDS011;44465;53.206;-6.106;2023-05-07T10:34:23;7.88;;;3.35;;
58685;SDS011;44465;53.206;-6.106;2023-05-07T10:36:53;6.07;;;2.65;;
58685;SDS011;44465;53.206;-6.106;2023-05-07T10:41:47;7.15;;;2.78;;
58685;SDS011;44465;53.206;-6.106;2023-05-07T10:44:27;7.85;;;2.40;;
58685;SDS011;44465;53.206;-6.106;2023-05-07T10:52:25;4.55;;;2.28;;
58685;SDS011;44465;53.206;-6.106;2023-05-07T10:57:46;3.88;;;2.47;;
58685;SDS011;44465;53.206;-6.106;2023-05-07T11:05:28;3.20;;;1.88;;
58685;SDS011;44465;53.206;-6.106;2023-05-07T11:09:15;5.85;;;3.00;;
58685;SDS011;44465;53.206;-6.106;2023-05-07T11:17:08;5.57;;;2.35;;
58685;SDS011;44465;53.206;-6.106;2023-05-07T11:19:50;3.85;;;1.75;;
58685;SDS011;44465;53.206;-6.106;2023-05-07T11:22:46;4.70;;;2.17;;
58685;SDS011;44465;53.206;-6.106;2023-05-07T11:25:32;8.43;;;2.35;;
58685;SDS011;44465;53.206;-6.106;2023-05-07T11:28:07;5.13;;;2.08;;
58685;SDS011;44465;53.206;-6.106;2023-05-07T11:30:41;3.83;;;2.13;;
58685;SDS011;44465;53.206;-6.106;2023-05-07T11:33:10;5.28;;;2.13;;
58685;SDS011;44465;53.206;-6.106;2023-05-07T11:35:37;7.57;;;2.30;;
58685;SDS011;44465;53.206;-6.106;2023-05-07T11:38:05;3.40;;;2.03;;
58685;SDS011;44465;53.206;-6.106;2023-05-07T11:40:33;5.20;;;2.20;;
58685;SDS011;44465;53.206;-6.106;2023-05-07T11:42:58;5.78;;;2.33;;
58685;SDS011;44465;53.206;-6.106;2023-05-07T11:45:24;4.93;;;2.05;;
58685;SDS011;44465;53.206;-6.106;2023-05-07T11:47:53;4.53;;;2.35;;
58685;SDS011;44465;53.206;-6.106;2023-05-07T11:50:18;5.70;;;2.08;;
58685;SDS011;44465;53.206;-6.106;2023-05-07T11:52:50;6.35;;;2.42;;
58685;SDS011;44465;53.206;-6.106;2023-05-07T11:55:18;4.22;;;2.20;;
58685;SDS011;44465;53.206;-6.106;2023-05-07T11:57:44;9.15;;;2.47;;
58685;SDS011;44465;53.206;-6.106;2023-05-07T12:00:10;8.73;;;2.45;;
58685;SDS011;44465;53.206;-6.106;2023-05-07T12:02:39;6.78;;;2.55;;
58685;SDS011;44465;53.206;-6.106;2023-05-07T12:05:04;5.00;;;2.33;;
58685;SDS011;44465;53.206;-6.106;2023-05-07T12:07:30;4.40;;;2.50;;
58685;SDS011;44465;53.206;-6.106;2023-05-07T12:09:59;6.85;;;2.67;;
58685;SDS011;44465;53.206;-6.106;2023-05-07T12:12:24;7.40;;;2.55;;
58685;SDS011;44465;53.206;-6.106;2023-05-07T12:14:52;6.70;;;2.40;;
58685;SDS011;44465;53.206;-6.106;2023-05-07T12:17:17;9.85;;;2.83;;
58685;SDS011;44465;53.206;-6.106;2023-05-07T12:19:43;6.43;;;2.40;;
58685;SDS011;44465;53.206;-6.106;2023-05-07T12:22:10;4.70;;;2.17;;
58685;SDS011;44465;53.206;-6.106;2023-05-07T12:27:15;8.88;;;2.60;;
58685;SDS011;44465;53.206;-6.106;2023-05-07T12:29:46;4.57;;;2.40;;
58685;SDS011;44465;53.206;-6.106;2023-05-07T12:32:16;7.32;;;2.35;;
58685;SDS011;44465;53.206;-6.106;2023-05-07T12:34:43;3.50;;;1.88;;
58685;SDS011;44465;53.206;-6.106;2023-05-07T12:37:09;3.53;;;2.00;;
58685;SDS011;44465;53.206;-6.106;2023-05-07T12:39:35;4.63;;;2.10;;
58685;SDS011;44465;53.206;-6.106;2023-05-07T12:42:01;5.60;;;2.03;;
58685;SDS011;44465;53.206;-6.106;2023-05-07T12:44:30;2.80;;;2.03;;
58685;SDS011;44465;53.206;-6.106;2023-05-07T12:46:57;4.32;;;2.13;;
58685;SDS011;44465;53.206;-6.106;2023-05-07T12:49:26;6.93;;;2.85;;
58685;SDS011;44465;53.206;-6.106;2023-05-07T12:51:51;3.60;;;2.22;;
58685;SDS011;44465;53.206;-6.106;2023-05-07T12:54:32;6.30;;;2.60;;
58685;SDS011;44465;53.206;-6.106;2023-05-07T12:57:02;7.40;;;2.20;;
58685;SDS011;44465;53.206;-6.106;2023-05-07T12:59:32;7.47;;;2.25;;
58685;SDS011;44465;53.206;-6.106;2023-05-07T13:01:58;4.63;;;2.20;;
58685;SDS011;44465;53.206;-6.106;2023-05-07T13:04:24;2.92;;;1.83;;
58685;SDS011;44465;53.206;-6.106;2023-05-07T13:06:51;7.13;;;2.60;;
58685;SDS011;44465;53.206;-6.106;2023-05-07T13:09:16;10.60;;;2.90;;
58685;SDS011;44465;53.206;-6.106;2023-05-07T13:11:42;9.30;;;2.45;;
58685;SDS011;44465;53.206;-6.106;2023-05-07T13:14:07;10.15;;;2.70;;
58685;SDS011;44465;53.206;-6.106;2023-05-07T13:16:33;5.50;;;1.80;;
58685;SDS011;44465;53.206;-6.106;2023-05-07T13:18:58;5.18;;;2.03;;
58685;SDS011;44465;53.206;-6.106;2023-05-07T13:21:24;4.07;;;2.00;;
58685;SDS011;44465;53.206;-6.106;2023-05-07T13:23:49;3.13;;;1.80;;
58685;SDS011;44465;53.206;-6.106;2023-05-07T13:26:15;5.30;;;1.88;;
58685;SDS011;44465;53.206;-6.106;2023-05-07T13:28:40;3.08;;;1.85;;
58685;SDS011;44465;53.206;-6.106;2023-05-07T13:31:07;4.82;;;1.67;;
58685;SDS011;44465;53.206;-6.106;2023-05-07T13:33:32;9.10;;;2.42;;
58685;SDS011;44465;53.206;-6.106;2023-05-07T13:35:58;10.88;;;2.33;;
58685;SDS011;44465;53.206;-6.106;2023-05-07T13:38:25;5.03;;;1.67;;
58685;SDS011;44465;53.206;-6.106;2023-05-07T13:40:51;2.83;;;1.42;;
58685;SDS011;44465;53.206;-6.106;2023-05-07T13:43:16;1.80;;;1.48;;
58685;SDS011;44465;53.206;-6.106;2023-05-07T13:45:43;13.13;;;3.10;;
58685;SDS011;44465;53.206;-6.106;2023-05-07T13:48:09;1.88;;;1.52;;
58685;SDS011;44465;53.206;-6.106;2023-05-07T13:50:35;7.63;;;1.85;;
58685;SDS011;44465;53.206;-6.106;2023-05-07T13:53:00;3.97;;;1.58;;
58685;SDS011;44465;53.206;-6.106;2023-05-07T13:55:27;3.10;;;1.77;;
58685;SDS011;44465;53.206;-6.106;2023-05-07T14:00:23;3.20;;;1.67;;
58685;SDS011;44465;53.206;-6.106;2023-05-07T14:02:53;3.17;;;1.42;;
58685;SDS011;44465;53.206;-6.106;2023-05-07T14:05:19;1.77;;;1.40;;
58685;SDS011;44465;53.206;-6.106;2023-05-07T14:07:45;5.15;;;2.40;;
58685;SDS011;44465;53.206;-6.106;2023-05-07T14:10:12;22.08;;;3.35;;
58685;SDS011;44465;53.206;-6.106;2023-05-07T14:12:38;8.90;;;2.13;;
58685;SDS011;44465;53.206;-6.106;2023-05-07T14:15:04;3.95;;;1.63;;
58685;SDS011;44465;53.206;-6.106;2023-05-07T14:17:29;4.63;;;1.73;;
58685;SDS011;44465;53.206;-6.106;2023-05-07T14:19:55;3.47;;;1.48;;
58685;SDS011;44465;53.206;-6.106;2023-05-07T14:22:21;3.25;;;1.70;;
58685;SDS011;44465;53.206;-6.106;2023-05-07T14:24:47;3.70;;;1.67;;
58685;SDS011;44465;53.206;-6.106;2023-05-07T14:27:14;3.97;;;1.95;;
58685;SDS011;44465;53.206;-6.106;2023-05-07T14:29:40;2.53;;;1.33;;
58685;SDS011;44465;53.206;-6.106;2023-05-07T14:32:05;3.63;;;1.60;;
58685;SDS011;44465;53.206;-6.106;2023-05-07T14:34:34;2.20;;;1.73;;
58685;SDS011;44465;53.206;-6.106;2023-05-07T14:37:00;2.92;;;1.52;;
58685;SDS011;44465;53.206;-6.106;2023-05-07T14:39:26;2.13;;;1.63;;
58685;SDS011;44465;53.206;-6.106;2023-05-07T14:41:52;2.22;;;2.03;;
58685;SDS011;44465;53.206;-6.106;2023-05-07T14:44:20;7.57;;;2.38;;
58685;SDS011;44465;53.206;-6.106;2023-05-07T14:46:45;5.35;;;2.00;;
58685;SDS011;44465;53.206;-6.106;2023-05-07T14:49:14;7.28;;;1.92;;
58685;SDS011;44465;53.206;-6.106;2023-05-07T14:51:45;5.88;;;1.77;;
58685;SDS011;44465;53.206;-6.106;2023-05-07T14:54:11;6.57;;;1.80;;
58685;SDS011;44465;53.206;-6.106;2023-05-07T14:56:37;8.50;;;2.35;;
58685;SDS011;44465;53.206;-6.106;2023-05-07T14:59:03;7.68;;;2.75;;
58685;SDS011;44465;53.206;-6.106;2023-05-07T15:01:29;10.38;;;3.17;;
58685;SDS011;44465;53.206;-6.106;2023-05-07T15:03:54;4.13;;;2.55;;
58685;SDS011;44465;53.206;-6.106;2023-05-07T15:06:20;13.77;;;3.10;;
58685;SDS011;44465;53.206;-6.106;2023-05-07T15:08:47;14.32;;;3.13;;
58685;SDS011;44465;53.206;-6.106;2023-05-07T15:11:13;6.03;;;2.40;;
58685;SDS011;44465;53.206;-6.106;2023-05-07T15:13:41;8.48;;;3.08;;